sensor_id;sensor_type;location;lat;lon;timestamp;pressure;altitude;pressure_sealevel;temperature;humidity
54262;BME280;40174;52.364;6.452;2023-02-21T00:00:15;101661.19;;;7.82;100.00
54262;BME280;40174;52.364;6.452;2023-02-21T00:02:59;101657.53;;;7.84;100.00
54262;BME280;40174;52.364;6.452;2023-02-21T00:05:43;101657.38;;;7.87;100.00
54262;BME280;40174;52.364;6.452;2023-02-21T00:08:28;101660.84;;;7.88;100.00
54262;BME280;40174;52.364;6.452;2023-02-21T00:11:12;101650.41;;;7.86;100.00
54262;BME280;40174;52.364;6.452;2023-02-21T00:13:56;101653.13;;;7.85;100.00
54262;BME280;40174;52.364;6.452;2023-02-21T00:16:42;101653.78;;;7.88;100.00
54262;BME280;40174;52.364;6.452;2023-02-21T00:19:26;101657.53;;;7.84;100.00
54262;BME280;40174;52.364;6.452;2023-02-21T00:22:11;101644.22;;;7.87;100.00
54262;BME280;40174;52.364;6.452;2023-02-21T00:24:55;101659.81;;;7.90;100.00
54262;BME280;40174;52.364;6.452;2023-02-21T00:27:40;101653.72;;;7.90;100.00
54262;BME280;40174;52.364;6.452;2023-02-21T00:30:24;101651.16;;;7.88;100.00
54262;BME280;40174;52.364;6.452;2023-02-21T00:33:10;101647.63;;;7.89;100.00
54262;BME280;40174;52.364;6.452;2023-02-21T00:35:54;101649.38;;;7.89;100.00
54262;BME280;40174;52.364;6.452;2023-02-21T00:38:39;101644.97;;;7.89;100.00
54262;BME280;40174;52.364;6.452;2023-02-21T00:41:23;101647.63;;;7.89;100.00
54262;BME280;40174;52.364;6.452;2023-02-21T00:44:07;101642.94;;;7.95;100.00
54262;BME280;40174;52.364;6.452;2023-02-21T00:46:53;101641.41;;;7.90;100.00
54262;BME280;40174;52.364;6.452;2023-02-21T00:49:39;101639.72;;;7.89;100.00
54262;BME280;40174;52.364;6.452;2023-02-21T00:52:23;101637.16;;;7.88;100.00
54262;BME280;40174;52.364;6.452;2023-02-21T00:55:07;101634.34;;;7.91;100.00
54262;BME280;40174;52.364;6.452;2023-02-21T00:57:52;101642.25;;;7.91;100.00
54262;BME280;40174;52.364;6.452;2023-02-21T01:00:36;101645.63;;;7.93;100.00
54262;BME280;40174;52.364;6.452;2023-02-21T01:03:20;101646.59;;;7.92;100.00
54262;BME280;40174;52.364;6.452;2023-02-21T01:06:09;101633.50;;;7.90;100.00
54262;BME280;40174;52.364;6.452;2023-02-21T01:08:54;101637.16;;;7.88;100.00
54262;BME280;40174;52.364;6.452;2023-02-21T01:11:38;101636.31;;;7.87;100.00
54262;BME280;40174;52.364;6.452;2023-02-21T01:14:22;101639.53;;;7.93;100.00
54262;BME280;40174;52.364;6.452;2023-02-21T01:17:06;101631.63;;;7.93;100.00
54262;BME280;40174;52.364;6.452;2023-02-21T01:19:50;101625.59;;;7.90;100.00
54262;BME280;40174;52.364;6.452;2023-02-21T01:22:37;101631.63;;;7.93;100.00
54262;BME280;40174;52.364;6.452;2023-02-21T01:25:21;101629.75;;;7.95;100.00
54262;BME280;40174;52.364;6.452;2023-02-21T01:28:06;101617.63;;;7.92;100.00
54262;BME280;40174;52.364;6.452;2023-02-21T01:30:50;101618.47;;;7.93;100.00
54262;BME280;40174;52.364;6.452;2023-02-21T01:33:36;101615.06;;;7.90;100.00
54262;BME280;40174;52.364;6.452;2023-02-21T01:36:21;101612.53;;;7.89;100.00
54262;BME280;40174;52.364;6.452;2023-02-21T01:39:06;101610.84;;;7.88;100.00
54262;BME280;40174;52.364;6.452;2023-02-21T01:41:51;101613.22;;;7.93;100.00
54262;BME280;40174;52.364;6.452;2023-02-21T01:44:37;101606.25;;;7.91;100.00
54262;BME280;40174;52.364;6.452;2023-02-21T01:47:21;101612.38;;;7.92;100.00
54262;BME280;40174;52.364;6.452;2023-02-21T01:50:11;101615.84;;;7.93;100.00
54262;BME280;40174;52.364;6.452;2023-02-21T01:52:56;101622.13;;;7.90;100.00
54262;BME280;40174;52.364;6.452;2023-02-21T01:55:42;101622.22;;;7.88;100.00
54262;BME280;40174;52.364;6.452;2023-02-21T01:58:29;101614.16;;;7.91;100.00
54262;BME280;40174;52.364;6.452;2023-02-21T02:01:24;101613.38;;;7.89;100.00
54262;BME280;40174;52.364;6.452;2023-02-21T02:04:10;101610.00;;;7.87;100.00
54262;BME280;40174;52.364;6.452;2023-02-21T02:06:55;101612.44;;;7.90;100.00
54262;BME280;40174;52.364;6.452;2023-02-21T02:09:39;101608.72;;;7.95;100.00
54262;BME280;40174;52.364;6.452;2023-02-21T02:12:49;101608.03;;;7.91;100.00
54262;BME280;40174;52.364;6.452;2023-02-21T02:15:30;101608.78;;;7.93;100.00
54262;BME280;40174;52.364;6.452;2023-02-21T02:27:29;101591.66;;;7.86;100.00
54262;BME280;40174;52.364;6.452;2023-02-21T02:33:25;101601.25;;;7.87;100.00
54262;BME280;40174;52.364;6.452;2023-02-21T02:35:59;101584.59;;;7.86;100.00
54262;BME280;40174;52.364;6.452;2023-02-21T02:38:32;101595.22;;;7.85;100.00
54262;BME280;40174;52.364;6.452;2023-02-21T02:41:06;101593.25;;;7.88;100.00
54262;BME280;40174;52.364;6.452;2023-02-21T02:43:41;101598.63;;;7.87;100.00
54262;BME280;40174;52.364;6.452;2023-02-21T02:46:14;101596.84;;;7.87;100.00
54262;BME280;40174;52.364;6.452;2023-02-21T02:48:46;101598.63;;;7.87;100.00
54262;BME280;40174;52.364;6.452;2023-02-21T02:51:17;101588.19;;;7.85;100.00
54262;BME280;40174;52.364;6.452;2023-02-21T02:53:45;101602.19;;;7.86;100.00
54262;BME280;40174;52.364;6.452;2023-02-21T02:56:14;101595.13;;;7.86;100.00
54262;BME280;40174;52.364;6.452;2023-02-21T02:58:45;101601.25;;;7.87;100.00
54262;BME280;40174;52.364;6.452;2023-02-21T03:01:34;101601.91;;;7.90;100.00
54262;BME280;40174;52.364;6.452;2023-02-21T03:04:14;101600.31;;;7.88;100.00
54262;BME280;40174;52.364;6.452;2023-02-21T03:06:50;101603.13;;;7.85;100.00
54262;BME280;40174;52.364;6.452;2023-02-21T03:09:24;101596.00;;;7.87;100.00
54262;BME280;40174;52.364;6.452;2023-02-21T03:11:59;101599.28;;;7.90;100.00
54262;BME280;40174;52.364;6.452;2023-02-21T03:14:33;101597.59;;;7.89;100.00
54262;BME280;40174;52.364;6.452;2023-02-21T03:17:05;101602.88;;;7.89;100.00
54262;BME280;40174;52.364;6.452;2023-02-21T03:19:37;101604.63;;;7.89;100.00
54262;BME280;40174;52.364;6.452;2023-02-21T03:22:07;101604.72;;;7.87;100.00
54262;BME280;40174;52.364;6.452;2023-02-21T03:24:37;101614.22;;;7.90;100.00
54262;BME280;40174;52.364;6.452;2023-02-21T03:27:07;101605.50;;;7.89;100.00
54262;BME280;40174;52.364;6.452;2023-02-21T03:30:02;101606.41;;;7.88;100.00
54262;BME280;40174;52.364;6.452;2023-02-21T03:32:31;101612.44;;;7.90;100.00
54262;BME280;40174;52.364;6.452;2023-02-21T03:35:00;101620.41;;;7.89;100.00
54262;BME280;40174;52.364;6.452;2023-02-21T03:37:31;101620.41;;;7.89;100.00
54262;BME280;40174;52.364;6.452;2023-02-21T03:39:59;101609.88;;;7.89;100.00
54262;BME280;40174;52.364;6.452;2023-02-21T03:42:27;101618.66;;;7.89;100.00
54262;BME280;40174;52.364;6.452;2023-02-21T03:44:54;101619.50;;;7.90;100.00
54262;BME280;40174;52.364;6.452;2023-02-21T03:47:21;101617.78;;;7.89;100.00
54262;BME280;40174;52.364;6.452;2023-02-21T03:49:48;101626.44;;;7.91;100.00
54262;BME280;40174;52.364;6.452;2023-02-21T03:52:15;101613.38;;;7.89;100.00
54262;BME280;40174;52.364;6.452;2023-02-21T03:54:44;101623.81;;;7.91;100.00
54262;BME280;40174;52.364;6.452;2023-02-21T03:57:15;101630.88;;;7.90;100.00
54262;BME280;40174;52.364;6.452;2023-02-21T03:59:44;101631.81;;;7.89;100.00
54262;BME280;40174;52.364;6.452;2023-02-21T04:02:12;101636.31;;;7.87;100.00
54262;BME280;40174;52.364;6.452;2023-02-21T04:04:39;101635.47;;;7.87;100.00
54262;BME280;40174;52.364;6.452;2023-02-21T04:07:08;101635.38;;;7.88;100.00
54262;BME280;40174;52.364;6.452;2023-02-21T04:09:36;101631.06;;;7.87;100.00
54262;BME280;40174;52.364;6.452;2023-02-21T04:12:06;101634.44;;;7.89;100.00
54262;BME280;40174;52.364;6.452;2023-02-21T04:14:35;101637.94;;;7.90;100.00
54262;BME280;40174;52.364;6.452;2023-02-21T04:17:02;101638.09;;;7.87;100.00
54262;BME280;40174;52.364;6.452;2023-02-21T04:19:29;101637.09;;;7.89;100.00
54262;BME280;40174;52.364;6.452;2023-02-21T04:21:56;101632.72;;;7.88;100.00
54262;BME280;40174;52.364;6.452;2023-02-21T04:24:24;101631.81;;;7.89;100.00
54262;BME280;40174;52.364;6.452;2023-02-21T04:26:51;101633.69;;;7.87;100.00
54262;BME280;40174;52.364;6.452;2023-02-21T04:29:19;101637.22;;;7.86;100.00
54262;BME280;40174;52.364;6.452;2023-02-21T04:31:46;101635.38;;;7.88;100.00
54262;BME280;40174;52.364;6.452;2023-02-21T04:34:15;101635.38;;;7.88;100.00
54262;BME280;40174;52.364;6.452;2023-02-21T04:36:43;101631.13;;;7.86;100.00
54262;BME280;40174;52.364;6.452;2023-02-21T04:39:10;101631.13;;;7.86;100.00
54262;BME280;40174;52.364;6.452;2023-02-21T04:41:38;101631.06;;;7.87;100.00
54262;BME280;40174;52.364;6.452;2023-02-21T04:44:05;101631.06;;;7.87;100.00
54262;BME280;40174;52.364;6.452;2023-02-21T04:46:34;101624.19;;;7.85;100.00
54262;BME280;40174;52.364;6.452;2023-02-21T04:49:01;101629.34;;;7.86;100.00
54262;BME280;40174;52.364;6.452;2023-02-21T04:51:27;101626.69;;;7.86;100.00
54262;BME280;40174;52.364;6.452;2023-02-21T04:53:54;101622.22;;;7.88;100.00
54262;BME280;40174;52.364;6.452;2023-02-21T04:56:24;101617.78;;;7.89;100.00
54262;BME280;40174;52.364;6.452;2023-02-21T04:58:51;101618.81;;;7.86;100.00
54262;BME280;40174;52.364;6.452;2023-02-21T05:01:19;101616.19;;;7.86;100.00
54262;BME280;40174;52.364;6.452;2023-02-21T05:03:47;101614.56;;;7.84;100.00
54262;BME280;40174;52.364;6.452;2023-02-21T05:06:17;101619.84;;;7.84;100.00
54262;BME280;40174;52.364;6.452;2023-02-21T05:08:44;101619.91;;;7.82;100.00
54262;BME280;40174;52.364;6.452;2023-02-21T05:11:11;101620.84;;;7.81;100.00
54262;BME280;40174;52.364;6.452;2023-02-21T05:13:37;101623.41;;;7.83;100.00
54262;BME280;40174;52.364;6.452;2023-02-21T05:16:05;101617.38;;;7.81;100.00
54262;BME280;40174;52.364;6.452;2023-02-21T05:18:31;101618.22;;;7.81;100.00
54262;BME280;40174;52.364;6.452;2023-02-21T05:21:00;101617.38;;;7.81;100.00
54262;BME280;40174;52.364;6.452;2023-02-21T05:23:26;101621.03;;;7.78;100.00
54262;BME280;40174;52.364;6.452;2023-02-21T05:26:00;101618.31;;;7.80;100.00
54262;BME280;40174;52.364;6.452;2023-02-21T05:28:27;101614.75;;;7.81;100.00
54262;BME280;40174;52.364;6.452;2023-02-21T05:30:54;101616.44;;;7.82;100.00
54262;BME280;40174;52.364;6.452;2023-02-21T05:33:20;101616.53;;;7.80;100.00
54262;BME280;40174;52.364;6.452;2023-02-21T05:35:47;101617.53;;;7.78;100.00
54262;BME280;40174;52.364;6.452;2023-02-21T05:38:17;101620.28;;;7.76;100.00
54262;BME280;40174;52.364;6.452;2023-02-21T05:40:43;101618.56;;;7.75;100.00
54262;BME280;40174;52.364;6.452;2023-02-21T05:43:10;101617.66;;;7.76;100.00
54262;BME280;40174;52.364;6.452;2023-02-21T05:45:37;101609.81;;;7.75;100.00
54262;BME280;40174;52.364;6.452;2023-02-21T05:48:04;101615.94;;;7.75;100.00
54262;BME280;40174;52.364;6.452;2023-02-21T05:50:30;101617.81;;;7.73;100.00
54262;BME280;40174;52.364;6.452;2023-02-21T05:52:57;101616.63;;;7.79;100.00
54262;BME280;40174;52.364;6.452;2023-02-21T05:55:26;101614.13;;;7.76;100.00
54262;BME280;40174;52.364;6.452;2023-02-21T05:57:53;101624.78;;;7.74;100.00
54262;BME280;40174;52.364;6.452;2023-02-21T06:00:22;101620.44;;;7.73;100.00
54262;BME280;40174;52.364;6.452;2023-02-21T06:02:49;101614.41;;;7.71;100.00
54262;BME280;40174;52.364;6.452;2023-02-21T06:05:16;101614.41;;;7.71;100.00
54262;BME280;40174;52.364;6.452;2023-02-21T06:07:43;101610.00;;;7.72;100.00
54262;BME280;40174;52.364;6.452;2023-02-21T06:10:10;101606.50;;;7.71;100.00
54262;BME280;40174;52.364;6.452;2023-02-21T06:12:38;101606.63;;;7.69;100.00
54262;BME280;40174;52.364;6.452;2023-02-21T06:15:05;101603.03;;;7.70;100.00
54262;BME280;40174;52.364;6.452;2023-02-21T06:17:33;101606.44;;;7.73;100.00
54262;BME280;40174;52.364;6.452;2023-02-21T06:19:59;101604.06;;;7.68;100.00
54262;BME280;40174;52.364;6.452;2023-02-21T06:22:26;101606.69;;;7.68;100.00
54262;BME280;40174;52.364;6.452;2023-02-21T06:24:53;101605.78;;;7.69;100.00
54262;BME280;40174;52.364;6.452;2023-02-21T06:27:19;101599.81;;;7.65;100.00
54262;BME280;40174;52.364;6.452;2023-02-21T06:29:47;101606.75;;;7.66;100.00
54262;BME280;40174;52.364;6.452;2023-02-21T06:32:14;101610.09;;;7.70;100.00
54262;BME280;40174;52.364;6.452;2023-02-21T06:34:42;101605.09;;;7.65;100.00
54262;BME280;40174;52.364;6.452;2023-02-21T06:37:09;101609.31;;;7.68;100.00
54262;BME280;40174;52.364;6.452;2023-02-21T06:39:37;101604.13;;;7.66;100.00
54262;BME280;40174;52.364;6.452;2023-02-21T06:42:03;101605.84;;;7.67;100.00
54262;BME280;40174;52.364;6.452;2023-02-21T06:44:30;101615.53;;;7.67;100.00
54262;BME280;40174;52.364;6.452;2023-02-21T06:46:58;101619.09;;;7.66;100.00
54262;BME280;40174;52.364;6.452;2023-02-21T06:49:25;101613.75;;;7.67;100.00
54262;BME280;40174;52.364;6.452;2023-02-21T06:51:51;101618.16;;;7.67;100.00
54262;BME280;40174;52.364;6.452;2023-02-21T06:54:18;101619.09;;;7.66;100.00
54262;BME280;40174;52.364;6.452;2023-02-21T06:56:44;101613.06;;;7.64;100.00
54262;BME280;40174;52.364;6.452;2023-02-21T06:59:11;101613.06;;;7.64;100.00
54262;BME280;40174;52.364;6.452;2023-02-21T07:01:38;101612.22;;;7.63;100.00
54262;BME280;40174;52.364;6.452;2023-02-21T07:04:05;101612.91;;;7.67;100.00
54262;BME280;40174;52.364;6.452;2023-02-21T07:06:32;101613.66;;;7.69;100.00
54262;BME280;40174;52.364;6.452;2023-02-21T07:08:59;101612.91;;;7.67;100.00
54262;BME280;40174;52.364;6.452;2023-02-21T07:11:26;101612.13;;;7.65;100.00
54262;BME280;40174;52.364;6.452;2023-02-21T07:13:53;101613.88;;;7.64;100.00
54262;BME280;40174;52.364;6.452;2023-02-21T07:16:21;101619.84;;;7.68;100.00
54262;BME280;40174;52.364;6.452;2023-02-21T07:18:48;101614.59;;;7.68;100.00
54262;BME280;40174;52.364;6.452;2023-02-21T07:21:17;101613.88;;;7.64;100.00
54262;BME280;40174;52.364;6.452;2023-02-21T07:23:44;101618.25;;;7.65;100.00
54262;BME280;40174;52.364;6.452;2023-02-21T07:26:11;101617.97;;;7.70;100.00
54262;BME280;40174;52.364;6.452;2023-02-21T07:28:38;101619.00;;;7.67;100.00
54262;BME280;40174;52.364;6.452;2023-02-21T07:31:05;101613.81;;;7.66;100.00
54262;BME280;40174;52.364;6.452;2023-02-21T07:33:32;101620.88;;;7.65;100.00
54262;BME280;40174;52.364;6.452;2023-02-21T07:35:58;101624.25;;;7.67;100.00
54262;BME280;40174;52.364;6.452;2023-02-21T07:38:28;101626.06;;;7.67;100.00
54262;BME280;40174;52.364;6.452;2023-02-21T07:40:57;101627.66;;;7.69;100.00
54262;BME280;40174;52.364;6.452;2023-02-21T07:43:25;101631.31;;;7.67;100.00
54262;BME280;40174;52.364;6.452;2023-02-21T07:45:52;101634.88;;;7.66;100.00
54262;BME280;40174;52.364;6.452;2023-02-21T07:48:18;101641.75;;;7.68;100.00
54262;BME280;40174;52.364;6.452;2023-02-21T07:50:45;101637.44;;;7.67;100.00
54262;BME280;40174;52.364;6.452;2023-02-21T07:53:13;101639.22;;;7.67;100.00
54262;BME280;40174;52.364;6.452;2023-02-21T07:55:41;101636.66;;;7.65;100.00
54262;BME280;40174;52.364;6.452;2023-02-21T07:58:08;101649.63;;;7.68;100.00
54262;BME280;40174;52.364;6.452;2023-02-21T08:00:35;101639.22;;;7.67;100.00
54262;BME280;40174;52.364;6.452;2023-02-21T08:03:02;101638.19;;;7.69;100.00
54262;BME280;40174;52.364;6.452;2023-02-21T08:05:28;101640.81;;;7.69;100.00
54262;BME280;40174;52.364;6.452;2023-02-21T08:07:55;101641.66;;;7.70;100.00
54262;BME280;40174;52.364;6.452;2023-02-21T08:10:23;101638.97;;;7.72;100.00
54262;BME280;40174;52.364;6.452;2023-02-21T08:12:51;101641.66;;;7.70;100.00
54262;BME280;40174;52.364;6.452;2023-02-21T08:15:18;101645.13;;;7.70;100.00
54262;BME280;40174;52.364;6.452;2023-02-21T08:17:47;101648.72;;;7.69;100.00
54262;BME280;40174;52.364;6.452;2023-02-21T08:20:14;101644.28;;;7.70;100.00
54262;BME280;40174;52.364;6.452;2023-02-21T08:22:40;101638.84;;;7.73;100.00
54262;BME280;40174;52.364;6.452;2023-02-21T08:25:08;101641.59;;;7.72;100.00
54262;BME280;40174;52.364;6.452;2023-02-21T08:27:37;101631.91;;;7.72;100.00
54262;BME280;40174;52.364;6.452;2023-02-21T08:30:06;101641.66;;;7.70;100.00
54262;BME280;40174;52.364;6.452;2023-02-21T08:32:34;101641.41;;;7.75;100.00
54262;BME280;40174;52.364;6.452;2023-02-21T08:35:01;101651.84;;;7.76;100.00
54262;BME280;40174;52.364;6.452;2023-02-21T08:37:30;101651.84;;;7.76;100.00
54262;BME280;40174;52.364;6.452;2023-02-21T08:39:58;101645.72;;;7.76;100.00
54262;BME280;40174;52.364;6.452;2023-02-21T08:42:25;101642.09;;;7.78;100.00
54262;BME280;40174;52.364;6.452;2023-02-21T08:44:51;101645.66;;;7.77;100.00
54262;BME280;40174;52.364;6.452;2023-02-21T08:47:19;101648.13;;;7.80;100.00
54262;BME280;40174;52.364;6.452;2023-02-21T08:49:47;101638.50;;;7.79;100.00
54262;BME280;40174;52.364;6.452;2023-02-21T08:52:14;101645.38;;;7.82;100.00
54262;BME280;40174;52.364;6.452;2023-02-21T08:54:42;101646.22;;;7.82;100.00
54262;BME280;40174;52.364;6.452;2023-02-21T08:57:09;101641.91;;;7.81;100.00
54262;BME280;40174;52.364;6.452;2023-02-21T08:59:38;101643.44;;;7.85;100.00
54262;BME280;40174;52.364;6.452;2023-02-21T09:02:14;101641.59;;;7.87;100.00
54262;BME280;40174;52.364;6.452;2023-02-21T09:04:42;101631.91;;;7.88;100.00
54262;BME280;40174;52.364;6.452;2023-02-21T09:07:11;101632.91;;;7.85;100.00
54262;BME280;40174;52.364;6.452;2023-02-21T09:09:38;101631.06;;;7.87;100.00
54262;BME280;40174;52.364;6.452;2023-02-21T09:12:06;101641.41;;;7.90;100.00
54262;BME280;40174;52.364;6.452;2023-02-21T09:14:33;101641.41;;;7.90;100.00
54262;BME280;40174;52.364;6.452;2023-02-21T09:17:00;101642.25;;;7.91;100.00
54262;BME280;40174;52.364;6.452;2023-02-21T09:19:27;101639.47;;;7.94;100.00
54262;BME280;40174;52.364;6.452;2023-02-21T09:21:55;101648.28;;;7.93;100.00
54262;BME280;40174;52.364;6.452;2023-02-21T09:24:22;101642.16;;;7.93;100.00
54262;BME280;40174;52.364;6.452;2023-02-21T09:26:49;101643.78;;;7.95;100.00
54262;BME280;40174;52.364;6.452;2023-02-21T09:29:18;101647.25;;;7.96;100.00
54262;BME280;40174;52.364;6.452;2023-02-21T09:31:45;101646.25;;;7.98;100.00
54262;BME280;40174;52.364;6.452;2023-02-21T09:34:12;101640.03;;;7.99;100.00
54262;BME280;40174;52.364;6.452;2023-02-21T09:36:39;101635.59;;;8.00;100.00
54262;BME280;40174;52.364;6.452;2023-02-21T09:39:07;101639.84;;;8.02;100.00
54262;BME280;40174;52.364;6.452;2023-02-21T09:41:35;101628.56;;;8.00;100.00
54262;BME280;40174;52.364;6.452;2023-02-21T09:44:03;101640.72;;;8.03;100.00
54262;BME280;40174;52.364;6.452;2023-02-21T09:46:33;101631.88;;;8.04;100.00
54262;BME280;40174;52.364;6.452;2023-02-21T09:49:01;101634.31;;;8.07;100.00
54262;BME280;40174;52.364;6.452;2023-02-21T09:51:29;101639.50;;;8.08;100.00
54262;BME280;40174;52.364;6.452;2023-02-21T09:53:57;101636.03;;;8.08;100.00
54262;BME280;40174;52.364;6.452;2023-02-21T09:56:28;101630.59;;;8.11;100.00
54262;BME280;40174;52.364;6.452;2023-02-21T09:58:58;101636.63;;;8.13;100.00
54262;BME280;40174;52.364;6.452;2023-02-21T10:01:37;101633.97;;;8.13;100.00
54262;BME280;40174;52.364;6.452;2023-02-21T10:04:13;101634.75;;;8.15;100.00
54262;BME280;40174;52.364;6.452;2023-02-21T10:06:50;101639.81;;;8.18;100.00
54262;BME280;40174;52.364;6.452;2023-02-21T10:09:26;101631.00;;;8.19;100.00
54262;BME280;40174;52.364;6.452;2023-02-21T10:12:06;101635.44;;;8.19;100.00
54262;BME280;40174;52.364;6.452;2023-02-21T10:14:46;101637.19;;;8.18;100.00
54262;BME280;40174;52.364;6.452;2023-02-21T10:17:22;101633.38;;;8.24;100.00
54262;BME280;40174;52.364;6.452;2023-02-21T10:19:54;101642.19;;;8.23;100.00
54262;BME280;40174;52.364;6.452;2023-02-21T10:22:26;101643.91;;;8.24;100.00
54262;BME280;40174;52.364;6.452;2023-02-21T10:24:54;101642.69;;;8.29;100.00
54262;BME280;40174;52.364;6.452;2023-02-21T10:27:24;101638.38;;;8.28;100.00
54262;BME280;40174;52.364;6.452;2023-02-21T10:29:55;101639.22;;;8.29;100.00
54262;BME280;40174;52.364;6.452;2023-02-21T10:32:25;101644.59;;;8.27;100.00
54262;BME280;40174;52.364;6.452;2023-02-21T10:34:52;101645.44;;;8.28;100.00
54262;BME280;40174;52.364;6.452;2023-02-21T10:37:31;101641.00;;;8.28;100.00
54262;BME280;40174;52.364;6.452;2023-02-21T10:40:03;101645.31;;;8.29;100.00
54262;BME280;40174;52.364;6.452;2023-02-21T10:42:37;101644.47;;;8.29;100.00
54262;BME280;40174;52.364;6.452;2023-02-21T10:45:06;101643.28;;;8.35;100.00
54262;BME280;40174;52.364;6.452;2023-02-21T10:47:46;101657.38;;;8.33;100.00
54262;BME280;40174;52.364;6.452;2023-02-21T10:50:35;101654.59;;;8.37;100.00
54262;BME280;40174;52.364;6.452;2023-02-21T10:53:03;101654.59;;;8.37;100.00
54262;BME280;40174;52.364;6.452;2023-02-21T10:55:29;101660.69;;;8.37;100.00
54262;BME280;40174;52.364;6.452;2023-02-21T10:58:04;101653.56;;;8.39;100.00
54262;BME280;40174;52.364;6.452;2023-02-21T11:00:33;101651.75;;;8.40;100.00
54262;BME280;40174;52.364;6.452;2023-02-21T11:03:03;101652.72;;;8.39;100.00
54262;BME280;40174;52.364;6.452;2023-02-21T11:05:31;101658.00;;;8.39;100.00
54262;BME280;40174;52.364;6.452;2023-02-21T11:07:59;101657.13;;;8.38;100.00
54262;BME280;40174;52.364;6.452;2023-02-21T11:10:30;101651.19;;;8.35;100.00
54262;BME280;40174;52.364;6.452;2023-02-21T11:13:13;101648.44;;;8.36;100.00
54262;BME280;40174;52.364;6.452;2023-02-21T11:15:41;101657.22;;;8.37;100.00
54262;BME280;40174;52.364;6.452;2023-02-21T11:18:13;101645.56;;;8.41;100.00
54262;BME280;40174;52.364;6.452;2023-02-21T11:20:40;101658.66;;;8.42;100.00
54262;BME280;40174;52.364;6.452;2023-02-21T11:23:29;101658.75;;;8.41;100.00
54262;BME280;40174;52.364;6.452;2023-02-21T11:25:59;101652.56;;;8.42;100.00
54262;BME280;40174;52.364;6.452;2023-02-21T11:28:35;101655.00;;;8.45;100.00
54262;BME280;40174;52.364;6.452;2023-02-21T11:31:06;101649.66;;;8.46;100.00
54262;BME280;40174;52.364;6.452;2023-02-21T11:33:39;101646.94;;;8.48;100.00
54262;BME280;40174;52.364;6.452;2023-02-21T11:36:11;101648.81;;;8.46;100.00
54262;BME280;40174;52.364;6.452;2023-02-21T11:38:39;101646.94;;;8.48;100.00
54262;BME280;40174;52.364;6.452;2023-02-21T11:41:16;101646.94;;;8.48;100.00
54262;BME280;40174;52.364;6.452;2023-02-21T11:43:48;101642.59;;;8.47;100.00
54262;BME280;40174;52.364;6.452;2023-02-21T11:46:33;101640.78;;;8.47;100.00
54262;BME280;40174;52.364;6.452;2023-02-21T11:49:05;101638.94;;;8.49;100.00
54262;BME280;40174;52.364;6.452;2023-02-21T11:51:38;101639.81;;;8.50;100.00
54262;BME280;40174;52.364;6.452;2023-02-21T11:54:07;101636.97;;;8.53;100.00
54262;BME280;40174;52.364;6.452;2023-02-21T11:56:43;101638.66;;;8.54;100.00
54262;BME280;40174;52.364;6.452;2023-02-21T11:59:22;101630.09;;;8.50;100.00
54262;BME280;40174;52.364;6.452;2023-02-21T12:01:58;101638.09;;;8.49;100.00
54262;BME280;40174;52.364;6.452;2023-02-21T12:04:35;101624.75;;;8.52;100.00
54262;BME280;40174;52.364;6.452;2023-02-21T12:07:11;101630.75;;;8.54;100.00
54262;BME280;40174;52.364;6.452;2023-02-21T12:09:43;101629.00;;;8.55;100.00
54262;BME280;40174;52.364;6.452;2023-02-21T12:12:29;101627.28;;;8.53;100.00
54262;BME280;40174;52.364;6.452;2023-02-21T12:15:17;101624.75;;;8.52;100.00
54262;BME280;40174;52.364;6.452;2023-02-21T12:18:25;101616.84;;;8.52;100.00
54262;BME280;40174;52.364;6.452;2023-02-21T12:21:09;101622.13;;;8.52;100.00
54262;BME280;40174;52.364;6.452;2023-02-21T12:23:46;101614.09;;;8.53;100.00
54262;BME280;40174;52.364;6.452;2023-02-21T12:26:28;101616.84;;;8.52;100.00
54262;BME280;40174;52.364;6.452;2023-02-21T12:29:07;101614.03;;;8.55;100.00
54262;BME280;40174;52.364;6.452;2023-02-21T12:31:48;101612.16;;;8.57;100.00
54262;BME280;40174;52.364;6.452;2023-02-21T12:34:28;101616.38;;;8.60;100.00
54262;BME280;40174;52.364;6.452;2023-02-21T12:37:14;101612.97;;;8.58;100.00
54262;BME280;40174;52.364;6.452;2023-02-21T12:39:55;101612.97;;;8.58;100.00
54262;BME280;40174;52.364;6.452;2023-02-21T12:42:42;101598.97;;;8.57;100.00
54262;BME280;40174;52.364;6.452;2023-02-21T12:45:21;101598.28;;;8.53;100.00
54262;BME280;40174;52.364;6.452;2023-02-21T12:47:57;101604.50;;;8.52;100.00
54262;BME280;40174;52.364;6.452;2023-02-21T12:50:29;101604.59;;;8.51;100.00
54262;BME280;40174;52.364;6.452;2023-02-21T12:52:59;101605.53;;;8.50;100.00
54262;BME280;40174;52.364;6.452;2023-02-21T12:55:31;101601.88;;;8.52;100.00
54262;BME280;40174;52.364;6.452;2023-02-21T12:58:03;101600.34;;;8.48;100.00
54262;BME280;40174;52.364;6.452;2023-02-21T13:00:38;101591.63;;;8.48;100.00
54262;BME280;40174;52.364;6.452;2023-02-21T13:03:24;101596.00;;;8.47;100.00
54262;BME280;40174;52.364;6.452;2023-02-21T13:06:01;101588.03;;;8.49;100.00
54262;BME280;40174;52.364;6.452;2023-02-21T13:08:33;101596.50;;;8.54;100.00
54262;BME280;40174;52.364;6.452;2023-02-21T13:11:10;101585.22;;;8.52;100.00
54262;BME280;40174;52.364;6.452;2023-02-21T13:13:38;101587.94;;;8.50;100.00
54262;BME280;40174;52.364;6.452;2023-02-21T13:16:06;101582.00;;;8.47;100.00
54262;BME280;40174;52.364;6.452;2023-02-21T13:18:38;101589.63;;;8.51;100.00
54262;BME280;40174;52.364;6.452;2023-02-21T13:21:18;101580.13;;;8.49;100.00
54262;BME280;40174;52.364;6.452;2023-02-21T13:24:13;101579.19;;;8.50;100.00
54262;BME280;40174;52.364;6.452;2023-02-21T13:26:50;101584.19;;;8.55;100.00
54262;BME280;40174;52.364;6.452;2023-02-21T13:29:22;101568.47;;;8.53;100.00
54262;BME280;40174;52.364;6.452;2023-02-21T13:31:57;101564.03;;;8.53;100.00